Orenge 7 — JL6148 — position and weather

sailwx.info

Track history (hours):
 
Tides and Currents Weather Stations Pressure Air Temp Water Temp Dewpoint Dewpoint Depression Visibility Wind Speed Wind Dir Waves Ship Positions

Orenge 7

Last reported at 2014-Oct-26 07:23 UTC. Time now 2014-Oct-26 07:41 UTC.
Position N 34°37' E 135°26'.

Length 163 m; draft 4.9 m.

Type: Passenger vessel. MMSI: 431500186.

Date/timePositionNaut miles runAvg speedWind from/ knotsBaromVisibWave heightAir tempDewpointWater temp
2014-Oct-26 07:23N 34°37' E 135°26'0 0.0
2014-Oct-26 06:29N 34°37' E 135°26'0 0.0
2014-Oct-26 05:29N 34°37' E 135°26'0 0.0
2014-Oct-26 04:29N 34°37' E 135°26'0 0.0
2014-Oct-26 02:29N 34°37' E 135°26'0 0.0
2014-Oct-26 01:17N 34°37' E 135°26'0 0.0
2014-Oct-25 23:29N 34°37' E 135°26'0 0.0
2014-Oct-25 22:29N 34°37' E 135°26'0 0.0
2014-Oct-25 21:29N 34°37' E 135°26'6 6.4
2014-Oct-25 20:33N 34°36' E 135°19'1817.9
2014-Oct-25 19:33N 34°36' E 134°57'1 0.0
2014-Oct-24 14:32N 34°37' E 134°56'1918.8
2014-Oct-24 13:33N 34°37' E 135°18'6 2.1
2014-Oct-24 10:31N 34°37' E 135°26'0 0.0
2014-Oct-24 09:31N 34°37' E 135°26'0 0.0
2014-Oct-24 08:31N 34°37' E 135°26'0 0.0
2014-Oct-24 07:19N 34°37' E 135°26'0 0.0
2014-Oct-24 06:31N 34°37' E 135°26'0 0.0
2014-Oct-24 05:31N 34°37' E 135°26'0 0.0
2014-Oct-24 04:25N 34°37' E 135°26'0 0.0
2014-Oct-24 03:31N 34°37' E 135°26'0 0.0
2014-Oct-24 02:25N 34°37' E 135°26'0 0.0
2014-Oct-24 01:31N 34°37' E 135°26'0 0.0
2014-Oct-24 00:25N 34°37' E 135°26'0 0.0
2014-Oct-23 23:31N 34°37' E 135°26'0 0.0
2014-Oct-23 22:25N 34°37' E 135°26'0 0.0
2014-Oct-23 21:13N 34°37' E 135°26'6 8.8
2014-Oct-23 20:33N 34°36' E 135°19'1817.7
2014-Oct-23 19:33N 34°36' E 134°57'1 0.0
2014-Oct-22 14:33N 34°36' E 134°56'1818.2
2014-Oct-22 13:33N 34°36' E 135°18'6 6.0
2014-Oct-22 12:29N 34°37' E 135°26'0 0.0
2014-Oct-22 11:23N 34°37' E 135°26'0 0.0
2014-Oct-22 10:23N 34°37' E 135°26'0 0.0
2014-Oct-22 09:23N 34°37' E 135°26'0 0.0
2014-Oct-22 08:23N 34°37' E 135°26'0 0.0
2014-Oct-22 07:05N 34°37' E 135°26'0 0.0
2014-Oct-22 06:23N 34°37' E 135°26'0 0.0
2014-Oct-22 05:17N 34°37' E 135°26'0 0.0
2014-Oct-22 04:23N 34°37' E 135°26'0 0.0
2014-Oct-22 03:29N 34°37' E 135°26'0 0.0
2014-Oct-22 02:29N 34°37' E 135°26'0 0.0
2014-Oct-22 01:17N 34°37' E 135°26'0 0.0
2014-Oct-22 00:05N 34°37' E 135°26'0 0.0
2014-Oct-21 21:23N 34°37' E 135°26'6 7.5
2014-Oct-21 20:33N 34°35' E 135°19'1716.9
2014-Oct-21 19:33N 34°37' E 134°58'1 0.0
2014-Oct-20 14:33N 34°37' E 134°58'1817.9
2014-Oct-20 13:33N 34°37' E 135°19'5 5.3
2014-Oct-20 12:33N 34°37' E 135°26'0 0.0
2014-Oct-20 11:27N 34°37' E 135°26'0 0.0
2014-Oct-20 10:27N 34°37' E 135°26'0 0.0
2014-Oct-20 09:15N 34°37' E 135°26'0 0.0
2014-Oct-20 08:33N 34°37' E 135°26'0 0.0
2014-Oct-20 07:27N 34°37' E 135°26'0 0.0
2014-Oct-20 06:33N 34°37' E 135°26'0 0.0
2014-Oct-20 05:33N 34°37' E 135°26'0 0.0
2014-Oct-20 04:33N 34°37' E 135°26'0 0.0
2014-Oct-20 03:27N 34°37' E 135°26'0 0.0
2014-Oct-20 02:33N 34°37' E 135°26'0 0.0
2014-Oct-20 01:27N 34°37' E 135°26'0 0.0
2014-Oct-20 00:27N 34°37' E 135°26'0 0.0
2014-Oct-19 23:33N 34°37' E 135°26'0 0.0
2014-Oct-19 22:33N 34°37' E 135°26'0 0.0
2014-Oct-19 21:27N 34°37' E 135°26'7 7.7
2014-Oct-19 20:33N 34°36' E 135°18'1717.2
2014-Oct-19 19:33N 34°36' E 134°57'1 0.0
2014-Oct-18 14:33N 34°37' E 134°57'1818.0
2014-Oct-18 13:33N 34°37' E 135°18'6 2.7
2014-Oct-18 11:20N 34°37' E 135°26'0 0.0
2014-Oct-18 10:32N 34°37' E 135°26'0 0.0
2014-Oct-18 09:32N 34°37' E 135°26'0 0.0
2014-Oct-18 08:32N 34°37' E 135°26'0 0.0
2014-Oct-18 07:14N 34°37' E 135°26'0 0.0
2014-Oct-18 06:32N 34°37' E 135°26'0 0.0
2014-Oct-18 05:32N 34°37' E 135°26'0 0.0
2014-Oct-18 04:32N 34°37' E 135°26'0 0.0
2014-Oct-18 03:20N 34°37' E 135°26'0 0.0
2014-Oct-18 02:32N 34°37' E 135°26'0 0.0
2014-Oct-18 01:32N 34°37' E 135°26'0 0.0
2014-Oct-18 00:26N 34°37' E 135°26'0 0.0
2014-Oct-17 23:32N 34°37' E 135°26'0 0.0
2014-Oct-17 22:32N 34°37' E 135°26'0 0.0
2014-Oct-17 21:32N 34°37' E 135°26'6 6.2
2014-Oct-17 20:33N 34°36' E 135°19'1918.6
2014-Oct-17 19:33N 34°36' E 134°56'2 0.1
2014-Oct-16 14:33N 34°37' E 134°58'1717.4
2014-Oct-16 13:33N 34°37' E 135°19'6 5.4
2014-Oct-16 12:29N 34°37' E 135°26'0 0.0
2014-Oct-16 11:05N 34°37' E 135°26'0 0.0
2014-Oct-16 10:29N 34°37' E 135°26'0 0.0
2014-Oct-16 08:17N 34°37' E 135°26'0 0.0
2014-Oct-16 07:29N 34°37' E 135°26'  
Track history (hours):
 
Tides and Currents Weather Stations Pressure Air Temp Water Temp Dewpoint Dewpoint Depression Visibility Wind Speed Wind Dir Waves Ship Positions

Orenge 7

Last reported at 2014-Oct-26 07:23 UTC. Time now 2014-Oct-26 07:41 UTC.
Position N 34°37' E 135°26'.

Length 163 m; draft 4.9 m.

Type: Passenger vessel. MMSI: 431500186.

Date/timePositionNaut miles runAvg speedWind from/ knotsBaromVisibWave heightAir tempDewpointWater temp
2014-Oct-26 07:23N 34°37' E 135°26'0 0.0
2014-Oct-26 06:29N 34°37' E 135°26'0 0.0
2014-Oct-26 05:29N 34°37' E 135°26'0 0.0
2014-Oct-26 04:29N 34°37' E 135°26'0 0.0
2014-Oct-26 02:29N 34°37' E 135°26'0 0.0
2014-Oct-26 01:17N 34°37' E 135°26'0 0.0
2014-Oct-25 23:29N 34°37' E 135°26'0 0.0
2014-Oct-25 22:29N 34°37' E 135°26'0 0.0
2014-Oct-25 21:29N 34°37' E 135°26'6 6.4
2014-Oct-25 20:33N 34°36' E 135°19'1817.9
2014-Oct-25 19:33N 34°36' E 134°57'1 0.0
2014-Oct-24 14:32N 34°37' E 134°56'1918.8
2014-Oct-24 13:33N 34°37' E 135°18'6 2.1
2014-Oct-24 10:31N 34°37' E 135°26'0 0.0
2014-Oct-24 09:31N 34°37' E 135°26'0 0.0
2014-Oct-24 08:31N 34°37' E 135°26'0 0.0
2014-Oct-24 07:19N 34°37' E 135°26'0 0.0
2014-Oct-24 06:31N 34°37' E 135°26'0 0.0
2014-Oct-24 05:31N 34°37' E 135°26'0 0.0
2014-Oct-24 04:25N 34°37' E 135°26'0 0.0
2014-Oct-24 03:31N 34°37' E 135°26'0 0.0
2014-Oct-24 02:25N 34°37' E 135°26'0 0.0
2014-Oct-24 01:31N 34°37' E 135°26'0 0.0
2014-Oct-24 00:25N 34°37' E 135°26'0 0.0
2014-Oct-23 23:31N 34°37' E 135°26'0 0.0
2014-Oct-23 22:25N 34°37' E 135°26'0 0.0
2014-Oct-23 21:13N 34°37' E 135°26'6 8.8
2014-Oct-23 20:33N 34°36' E 135°19'1817.7
2014-Oct-23 19:33N 34°36' E 134°57'1 0.0
2014-Oct-22 14:33N 34°36' E 134°56'1818.2
2014-Oct-22 13:33N 34°36' E 135°18'6 6.0
2014-Oct-22 12:29N 34°37' E 135°26'0 0.0
2014-Oct-22 11:23N 34°37' E 135°26'0 0.0
2014-Oct-22 10:23N 34°37' E 135°26'0 0.0
2014-Oct-22 09:23N 34°37' E 135°26'0 0.0
2014-Oct-22 08:23N 34°37' E 135°26'0 0.0
2014-Oct-22 07:05N 34°37' E 135°26'0 0.0
2014-Oct-22 06:23N 34°37' E 135°26'0 0.0
2014-Oct-22 05:17N 34°37' E 135°26'0 0.0
2014-Oct-22 04:23N 34°37' E 135°26'0 0.0
2014-Oct-22 03:29N 34°37' E 135°26'0 0.0
2014-Oct-22 02:29N 34°37' E 135°26'0 0.0
2014-Oct-22 01:17N 34°37' E 135°26'0 0.0
2014-Oct-22 00:05N 34°37' E 135°26'0 0.0
2014-Oct-21 21:23N 34°37' E 135°26'6 7.5
2014-Oct-21 20:33N 34°35' E 135°19'1716.9
2014-Oct-21 19:33N 34°37' E 134°58'1 0.0
2014-Oct-20 14:33N 34°37' E 134°58'1817.9
2014-Oct-20 13:33N 34°37' E 135°19'5 5.3
2014-Oct-20 12:33N 34°37' E 135°26'0 0.0
2014-Oct-20 11:27N 34°37' E 135°26'0 0.0
2014-Oct-20 10:27N 34°37' E 135°26'0 0.0
2014-Oct-20 09:15N 34°37' E 135°26'0 0.0
2014-Oct-20 08:33N 34°37' E 135°26'0 0.0
2014-Oct-20 07:27N 34°37' E 135°26'0 0.0
2014-Oct-20 06:33N 34°37' E 135°26'0 0.0
2014-Oct-20 05:33N 34°37' E 135°26'0 0.0
2014-Oct-20 04:33N 34°37' E 135°26'0 0.0
2014-Oct-20 03:27N 34°37' E 135°26'0 0.0
2014-Oct-20 02:33N 34°37' E 135°26'0 0.0
2014-Oct-20 01:27N 34°37' E 135°26'0 0.0
2014-Oct-20 00:27N 34°37' E 135°26'0 0.0
2014-Oct-19 23:33N 34°37' E 135°26'0 0.0
2014-Oct-19 22:33N 34°37' E 135°26'0 0.0
2014-Oct-19 21:27N 34°37' E 135°26'7 7.7
2014-Oct-19 20:33N 34°36' E 135°18'1717.2
2014-Oct-19 19:33N 34°36' E 134°57'1 0.0
2014-Oct-18 14:33N 34°37' E 134°57'1818.0
2014-Oct-18 13:33N 34°37' E 135°18'6 2.7
2014-Oct-18 11:20N 34°37' E 135°26'0 0.0
2014-Oct-18 10:32N 34°37' E 135°26'0 0.0
2014-Oct-18 09:32N 34°37' E 135°26'0 0.0
2014-Oct-18 08:32N 34°37' E 135°26'0 0.0
2014-Oct-18 07:14N 34°37' E 135°26'0 0.0
2014-Oct-18 06:32N 34°37' E 135°26'0 0.0
2014-Oct-18 05:32N 34°37' E 135°26'0 0.0
2014-Oct-18 04:32N 34°37' E 135°26'0 0.0
2014-Oct-18 03:20N 34°37' E 135°26'0 0.0
2014-Oct-18 02:32N 34°37' E 135°26'0 0.0
2014-Oct-18 01:32N 34°37' E 135°26'0 0.0
2014-Oct-18 00:26N 34°37' E 135°26'0 0.0
2014-Oct-17 23:32N 34°37' E 135°26'0 0.0
2014-Oct-17 22:32N 34°37' E 135°26'0 0.0
2014-Oct-17 21:32N 34°37' E 135°26'6 6.2
2014-Oct-17 20:33N 34°36' E 135°19'1918.6
2014-Oct-17 19:33N 34°36' E 134°56'2 0.1
2014-Oct-16 14:33N 34°37' E 134°58'1717.4
2014-Oct-16 13:33N 34°37' E 135°19'6 5.4
2014-Oct-16 12:29N 34°37' E 135°26'0 0.0
2014-Oct-16 11:05N 34°37' E 135°26'0 0.0
2014-Oct-16 10:29N 34°37' E 135°26'0 0.0
2014-Oct-16 08:17N 34°37' E 135°26'0 0.0
2014-Oct-16 07:29N 34°37' E 135°26'  

Dump ship's entire track history